createdAt,value
2018-01-27T00:01:51.098Z,23.40
2018-01-27T00:04:18.694Z,22.63
2018-01-27T00:06:48.277Z,21.33
2018-01-27T00:09:16.570Z,22.33
2018-01-27T00:11:44.193Z,23.20
2018-01-27T00:14:11.836Z,23.23
2018-01-27T00:19:15.309Z,41.33
2018-01-27T00:21:44.524Z,21.90
2018-01-27T00:24:12.135Z,21.30
2018-01-27T00:26:39.767Z,19.03
2018-01-27T00:29:19.635Z,19.67
2018-01-27T00:31:49.879Z,20.40
2018-01-27T00:34:18.530Z,23.03
2018-01-27T00:36:47.403Z,22.00
2018-01-27T00:39:20.745Z,19.40
2018-01-27T00:41:48.340Z,21.83
2018-01-27T00:44:16.338Z,20.67
2018-01-27T00:46:46.593Z,19.77
2018-01-27T00:49:14.381Z,20.50
2018-01-27T00:51:42.080Z,20.13
2018-01-27T00:54:09.793Z,21.50
2018-01-27T00:56:37.449Z,21.17
2018-01-27T00:59:05.074Z,20.70
2018-01-27T01:01:32.728Z,20.87
2018-01-27T01:04:00.503Z,24.13
2018-01-27T01:06:28.178Z,22.03
2018-01-27T01:08:55.872Z,23.40
2018-01-27T01:11:23.566Z,21.93
2018-01-27T01:13:51.179Z,23.80
2018-01-27T01:16:18.846Z,24.70
2018-01-27T01:21:22.051Z,22.50
2018-01-27T01:23:49.693Z,20.57
2018-01-27T01:26:17.394Z,19.63
2018-01-27T01:28:45.574Z,22.17
2018-01-27T01:31:13.213Z,20.47
2018-01-27T01:33:41.600Z,20.87
2018-01-27T01:36:09.233Z,21.07
2018-01-27T01:38:36.838Z,19.60
2018-01-27T01:41:04.502Z,18.67
2018-01-27T01:43:37.894Z,17.20
2018-01-27T01:46:06.299Z,14.03
2018-01-27T01:48:34.660Z,17.10
2018-01-27T01:51:02.314Z,20.60
2018-01-27T01:53:29.921Z,14.47
2018-01-27T01:55:57.602Z,20.50
2018-01-27T01:58:25.283Z,18.77
2018-01-27T02:00:52.950Z,22.00
2018-01-27T02:03:20.553Z,18.53
2018-01-27T02:05:48.213Z,19.97
2018-01-27T02:08:15.902Z,19.23
2018-01-27T02:10:43.565Z,20.07
2018-01-27T02:13:11.999Z,17.63
2018-01-27T02:15:39.646Z,17.67
2018-01-27T02:18:07.329Z,19.80
2018-01-27T02:20:34.926Z,19.70
2018-01-27T02:23:02.546Z,20.23
2018-01-27T02:25:30.171Z,21.17
2018-01-27T02:27:57.850Z,21.83
2018-01-27T02:30:25.463Z,17.93
2018-01-27T02:32:54.055Z,20.67
2018-01-27T02:35:21.719Z,19.70
2018-01-27T02:37:49.379Z,19.90
2018-01-27T02:40:17.947Z,20.07
2018-01-27T02:42:45.610Z,19.93
2018-01-27T02:45:13.245Z,21.00
2018-01-27T02:47:40.905Z,20.00
2018-01-27T02:50:08.533Z,22.10
2018-01-27T02:52:36.161Z,22.50
2018-01-27T02:55:03.839Z,24.00
2018-01-27T02:57:31.455Z,24.33
2018-01-27T02:59:59.123Z,21.00
2018-01-27T03:02:26.787Z,22.90
2018-01-27T03:04:54.425Z,23.30
2018-01-27T03:07:22.822Z,24.07
2018-01-27T03:09:51.212Z,27.10
2018-01-27T03:12:18.854Z,22.00
2018-01-27T03:14:47.584Z,25.00
2018-01-27T03:17:15.245Z,25.73
2018-01-27T03:19:42.854Z,30.07
2018-01-27T03:22:10.492Z,28.10
2018-01-27T03:24:38.878Z,25.30
2018-01-27T03:27:06.522Z,27.07
2018-01-27T03:29:34.211Z,25.80
2018-01-27T03:32:01.853Z,25.30
2018-01-27T03:34:30.229Z,25.37
2018-01-27T03:36:57.867Z,28.57
2018-01-27T03:39:25.496Z,29.13
2018-01-27T03:41:54.691Z,26.07
2018-01-27T03:44:22.367Z,25.40
2018-01-27T03:46:50.073Z,26.97
2018-01-27T03:49:17.693Z,24.20
2018-01-27T03:51:46.339Z,26.57
2018-01-27T03:54:14.047Z,28.43
2018-01-27T03:56:41.733Z,26.00
2018-01-27T03:59:09.446Z,25.60
2018-01-27T04:01:37.101Z,26.07
2018-01-27T04:04:04.840Z,28.27
2018-01-27T04:06:33.224Z,24.60
2018-01-27T04:09:01.680Z,24.40
2018-01-27T04:11:29.283Z,25.87
2018-01-27T04:13:56.973Z,27.27
2018-01-27T04:16:24.594Z,26.83
2018-01-27T04:18:52.338Z,25.40
2018-01-27T04:21:19.946Z,27.60
2018-01-27T04:23:48.023Z,26.87
2018-01-27T04:26:15.644Z,28.73
2018-01-27T04:28:43.317Z,26.53
2018-01-27T04:31:11.072Z,24.73
2018-01-27T04:33:38.766Z,26.07
2018-01-27T04:36:06.421Z,27.27
2018-01-27T04:38:34.788Z,26.23
2018-01-27T04:41:02.416Z,24.93
2018-01-27T04:43:30.012Z,27.40
2018-01-27T04:45:57.639Z,24.10
2018-01-27T04:48:25.240Z,27.13
2018-01-27T04:50:52.905Z,23.97
2018-01-27T04:53:20.580Z,23.70
2018-01-27T04:55:48.311Z,24.53
2018-01-27T04:58:16.814Z,24.60
2018-01-27T05:00:45.212Z,26.03
2018-01-27T05:03:13.590Z,24.70
2018-01-27T05:05:41.270Z,26.50
2018-01-27T05:08:08.923Z,25.33
2018-01-27T05:10:36.638Z,25.07
2018-01-27T05:13:04.323Z,27.77
2018-01-27T05:15:32.019Z,26.23
2018-01-27T05:17:59.740Z,24.80
2018-01-27T05:20:28.150Z,26.30
2018-01-27T05:22:56.568Z,26.77
2018-01-27T05:25:24.175Z,27.97
2018-01-27T05:27:51.819Z,25.17
2018-01-27T05:30:20.193Z,23.40
2018-01-27T05:32:48.096Z,25.77
2018-01-27T05:35:17.537Z,26.60
2018-01-27T05:37:45.928Z,25.87
2018-01-27T05:40:13.521Z,24.33
2018-01-27T05:42:41.225Z,27.90
2018-01-27T05:45:10.597Z,24.77
2018-01-27T05:47:38.236Z,24.97
2018-01-27T05:50:06.605Z,25.20
2018-01-27T05:52:34.231Z,24.20
2018-01-27T05:55:02.596Z,24.10
2018-01-27T05:57:30.290Z,22.00
2018-01-27T05:59:57.936Z,22.47
2018-01-27T06:02:25.569Z,24.20
2018-01-27T06:04:53.197Z,22.07
2018-01-27T06:07:20.900Z,22.37
2018-01-27T06:09:48.512Z,22.00
2018-01-27T06:12:16.268Z,23.47
2018-01-27T06:14:43.925Z,23.60
2018-01-27T06:17:12.289Z,20.07
2018-01-27T06:19:39.938Z,22.23
2018-01-27T06:22:07.599Z,24.47
2018-01-27T06:24:35.318Z,23.23
2018-01-27T06:27:02.926Z,21.73
2018-01-27T06:29:34.173Z,23.10
2018-01-27T06:32:01.955Z,23.87
2018-01-27T06:34:29.603Z,21.93
2018-01-27T06:36:58.061Z,22.60
2018-01-27T06:39:25.740Z,21.17
2018-01-27T06:41:53.346Z,21.23
2018-01-27T06:44:22.098Z,22.10
2018-01-27T06:46:50.480Z,20.63
2018-01-27T06:49:19.154Z,19.43
2018-01-27T06:51:47.377Z,22.57
2018-01-27T06:54:15.014Z,20.00
2018-01-27T06:56:42.678Z,20.40
2018-01-27T06:59:10.307Z,21.13
2018-01-27T07:01:37.913Z,20.47
2018-01-27T07:04:05.550Z,18.80
2018-01-27T07:06:33.196Z,19.77
2018-01-27T07:09:00.825Z,20.43
2018-01-27T07:11:28.461Z,19.00
2018-01-27T07:13:56.089Z,19.47
2018-01-27T07:16:23.752Z,18.20
2018-01-27T07:18:52.143Z,18.17
2018-01-27T07:21:19.810Z,19.07
2018-01-27T07:23:48.689Z,17.87
2018-01-27T07:26:16.483Z,18.20
2018-01-27T07:28:44.104Z,18.23
2018-01-27T07:31:11.700Z,19.27
2018-01-27T07:33:39.377Z,16.60
2018-01-27T07:36:07.059Z,16.20
2018-01-27T07:38:34.692Z,24.27
2018-01-27T07:41:03.045Z,23.27
2018-01-27T07:43:31.743Z,22.63
2018-01-27T07:46:19.503Z,21.87
2018-01-27T07:48:47.202Z,17.53
2018-01-27T07:51:14.795Z,24.63
2018-01-27T07:53:42.423Z,19.80
2018-01-27T07:56:10.064Z,17.10
2018-01-27T07:58:37.768Z,16.40
2018-01-27T08:01:05.407Z,16.40
2018-01-27T08:03:33.124Z,17.60
2018-01-27T08:06:03.029Z,16.97
2018-01-27T08:08:30.695Z,17.07
2018-01-27T08:10:59.130Z,19.10
2018-01-27T08:13:26.799Z,19.10
2018-01-27T08:15:54.487Z,16.97
2018-01-27T08:18:22.147Z,17.93
2018-01-27T08:20:49.853Z,18.63
2018-01-27T08:23:17.835Z,18.37
2018-01-27T08:25:45.585Z,18.27
2018-01-27T08:28:13.191Z,19.63
2018-01-27T08:30:40.880Z,17.07
2018-01-27T08:33:08.472Z,18.37
2018-01-27T08:35:36.096Z,16.10
2018-01-27T08:38:03.693Z,17.53
2018-01-27T08:40:31.388Z,14.80
2018-01-27T08:42:58.992Z,17.63
2018-01-27T08:45:26.620Z,17.47
2018-01-27T08:47:54.208Z,14.60
2018-01-27T08:50:21.829Z,15.70
2018-01-27T08:52:49.434Z,16.37
2018-01-27T08:55:17.095Z,14.90
2018-01-27T08:57:44.675Z,14.07
2018-01-27T09:00:12.319Z,15.03
2018-01-27T09:02:40.672Z,14.40
2018-01-27T09:05:08.284Z,15.27
2018-01-27T09:07:35.868Z,14.20
2018-01-27T09:10:03.512Z,15.30
2018-01-27T09:12:31.134Z,15.20
2018-01-27T09:14:58.751Z,14.83
2018-01-27T09:17:27.174Z,19.20
2018-01-27T09:19:54.828Z,16.30
2018-01-27T09:22:23.177Z,15.20
2018-01-27T09:24:50.818Z,15.60
2018-01-27T09:27:18.490Z,13.00
2018-01-27T09:29:46.104Z,14.77
2018-01-27T09:32:13.749Z,14.10
2018-01-27T09:34:41.353Z,15.40
2018-01-27T09:37:08.969Z,14.27
2018-01-27T09:39:36.573Z,14.97
2018-01-27T09:42:04.193Z,14.50
2018-01-27T09:44:31.774Z,15.00
2018-01-27T09:46:59.406Z,14.93
2018-01-27T09:49:27.013Z,14.50
2018-01-27T09:51:54.698Z,14.83
2018-01-27T09:54:22.274Z,14.57
2018-01-27T09:56:49.865Z,13.87
2018-01-27T09:59:18.710Z,16.20
2018-01-27T10:01:47.300Z,17.80
2018-01-27T10:04:14.932Z,15.40
2018-01-27T10:06:43.342Z,13.00
2018-01-27T10:09:11.786Z,15.50
2018-01-27T10:11:39.372Z,16.50
2018-01-27T10:14:06.966Z,15.10
2018-01-27T10:16:34.554Z,16.73
2018-01-27T10:19:10.697Z,16.10
2018-01-27T10:22:10.078Z,14.40
2018-01-27T10:24:38.671Z,17.87
2018-01-27T10:27:08.066Z,17.87
2018-01-27T10:29:36.157Z,15.50
2018-01-27T10:32:04.198Z,13.70
2018-01-27T10:34:31.843Z,27.53
2018-01-27T10:36:59.476Z,41.23
2018-01-27T10:39:30.418Z,28.07
2018-01-27T10:41:59.665Z,17.90
2018-01-27T10:44:28.065Z,14.40
2018-01-27T10:46:56.438Z,15.30
2018-01-27T10:49:24.202Z,12.97
2018-01-27T10:51:51.841Z,13.40
2018-01-27T10:54:19.425Z,15.53
2018-01-27T10:56:47.851Z,14.50
2018-01-27T10:59:19.265Z,13.20
2018-01-27T11:01:48.043Z,14.47
2018-01-27T11:04:15.628Z,15.53
2018-01-27T11:06:49.720Z,15.27
2018-01-27T11:09:18.110Z,16.30
2018-01-27T11:11:55.688Z,15.10
2018-01-27T11:14:23.297Z,16.10
2018-01-27T11:16:50.914Z,14.70
2018-01-27T11:19:18.516Z,15.00
2018-01-27T11:21:46.121Z,15.97
2018-01-27T11:24:14.529Z,15.00
2018-01-27T11:26:42.890Z,17.10
2018-01-27T11:29:10.516Z,16.40
2018-01-27T11:31:38.863Z,16.00
2018-01-27T11:34:06.506Z,16.20
2018-01-27T11:36:34.563Z,15.93
2018-01-27T11:39:02.208Z,15.70
2018-01-27T11:41:29.815Z,17.37
2018-01-27T11:43:57.487Z,16.57
2018-01-27T11:46:25.077Z,17.60
2018-01-27T11:48:52.758Z,17.00
2018-01-27T11:51:20.352Z,16.50
2018-01-27T11:53:47.971Z,15.07
2018-01-27T11:56:15.553Z,22.57
2018-01-27T11:58:43.261Z,19.70
2018-01-27T12:01:11.623Z,15.63
2018-01-27T12:03:39.226Z,15.20
2018-01-27T12:06:06.855Z,20.87
2018-01-27T12:08:34.783Z,15.43
2018-01-27T12:11:02.396Z,15.33
2018-01-27T12:13:30.061Z,17.07
2018-01-27T12:15:57.682Z,16.47
2018-01-27T12:18:26.057Z,15.13
2018-01-27T12:20:53.692Z,15.20
2018-01-27T12:23:21.295Z,15.50
2018-01-27T12:25:48.971Z,15.70
2018-01-27T12:28:16.565Z,14.83
2018-01-27T12:30:44.337Z,14.47
2018-01-27T12:33:11.932Z,15.60
2018-01-27T12:35:39.808Z,17.23
2018-01-27T12:38:07.514Z,16.83
2018-01-27T12:40:35.110Z,17.33
2018-01-27T12:43:02.728Z,17.00
2018-01-27T12:45:30.309Z,14.90
2018-01-27T12:47:57.925Z,15.13
2018-01-27T12:50:26.306Z,14.23
2018-01-27T12:52:54.687Z,16.90
2018-01-27T12:55:22.284Z,15.40
2018-01-27T12:57:49.903Z,14.00
2018-01-27T13:00:17.506Z,15.17
2018-01-27T13:02:45.132Z,15.30
2018-01-27T13:05:12.745Z,12.90
2018-01-27T13:07:41.137Z,15.20
2018-01-27T13:10:08.725Z,14.83
2018-01-27T13:12:37.110Z,14.27
2018-01-27T13:15:05.711Z,13.43
2018-01-27T13:17:33.321Z,14.60
2018-01-27T13:20:01.712Z,14.30
2018-01-27T13:22:29.291Z,14.60
2018-01-27T13:24:56.901Z,15.80
2018-01-27T13:27:25.265Z,14.03
2018-01-27T13:29:52.875Z,16.50
2018-01-27T13:32:20.512Z,15.70
2018-01-27T13:34:48.151Z,15.50
2018-01-27T13:37:15.766Z,15.30
2018-01-27T13:39:43.419Z,17.10
2018-01-27T13:42:11.800Z,16.43
2018-01-27T13:44:39.412Z,16.60
2018-01-27T13:47:07.031Z,14.93
2018-01-27T13:49:34.617Z,15.03
2018-01-27T13:52:03.496Z,15.10
2018-01-27T13:54:31.841Z,15.30
2018-01-27T13:56:59.477Z,16.43
2018-01-27T13:59:27.139Z,17.20
2018-01-27T14:01:54.890Z,15.40
2018-01-27T14:04:22.527Z,17.90
2018-01-27T14:06:50.174Z,14.90
2018-01-27T14:09:17.752Z,13.33
2018-01-27T14:11:45.438Z,13.77
2018-01-27T14:14:13.050Z,15.07
2018-01-27T14:16:40.663Z,13.40
2018-01-27T14:19:08.251Z,15.23
2018-01-27T14:21:35.862Z,13.83
2018-01-27T14:24:03.780Z,16.20
2018-01-27T14:26:31.384Z,13.57
2018-01-27T14:28:58.997Z,15.80
2018-01-27T14:31:26.610Z,14.07
2018-01-27T14:33:54.229Z,17.40
2018-01-27T14:36:33.812Z,14.00
2018-01-27T14:39:01.437Z,16.47
2018-01-27T14:41:29.779Z,15.60
2018-01-27T14:43:57.406Z,14.87
2018-01-27T14:46:25.010Z,15.23
2018-01-27T14:48:53.385Z,15.73
2018-01-27T14:51:21.053Z,15.30
2018-01-27T14:53:49.380Z,17.93
2018-01-27T14:56:17.732Z,15.33
2018-01-27T14:58:45.306Z,15.27
2018-01-27T15:01:13.483Z,16.47
2018-01-27T15:03:41.945Z,14.77
2018-01-27T15:06:09.588Z,14.67
2018-01-27T15:08:37.182Z,14.60
2018-01-27T15:11:04.807Z,14.40
2018-01-27T15:13:32.394Z,15.13
2018-01-27T15:16:00.039Z,14.13
2018-01-27T15:18:27.637Z,14.20
2018-01-27T15:20:55.370Z,16.27
2018-01-27T15:23:23.742Z,15.33
2018-01-27T15:25:51.363Z,14.90
2018-01-27T15:28:18.970Z,14.03
2018-01-27T15:30:46.591Z,15.43
2018-01-27T15:33:14.193Z,15.23
2018-01-27T15:35:41.850Z,14.47
2018-01-27T15:38:09.447Z,14.10
2018-01-27T15:40:37.094Z,13.77
2018-01-27T15:43:05.037Z,14.53
2018-01-27T15:45:32.639Z,13.90
2018-01-27T17:22:46.687Z,23.67
2018-01-27T17:25:36.115Z,24.10
2018-01-27T17:30:57.863Z,26.30
2018-01-27T17:33:48.698Z,25.33
2018-01-27T17:36:25.437Z,29.17
2018-01-27T17:38:55.201Z,30.60
2018-01-27T17:47:21.690Z,30.53
2018-01-27T17:50:03.940Z,28.23
2018-01-27T17:52:48.394Z,27.40
2018-01-27T17:55:17.216Z,28.93
2018-01-27T18:03:56.493Z,24.13
2018-01-27T18:12:24.111Z,29.07
2018-01-27T18:14:53.474Z,24.73
2018-01-27T18:17:21.186Z,28.30
2018-01-27T19:39:06.875Z,26.10
2018-01-27T19:44:36.077Z,28.70
2018-01-27T19:47:03.764Z,28.47
2018-01-27T19:49:32.368Z,28.90
2018-01-27T19:52:00.427Z,29.00
2018-01-27T19:54:28.079Z,31.00
2018-01-27T19:56:55.777Z,27.90
2018-01-27T19:59:23.424Z,30.73
2018-01-27T20:01:51.538Z,31.77
2018-01-27T20:04:23.046Z,29.00
2018-01-27T20:16:09.314Z,30.50
2018-01-27T20:18:37.696Z,31.77
2018-01-27T20:21:06.175Z,29.40
2018-01-27T20:23:33.826Z,33.33
2018-01-27T20:26:02.980Z,34.90
2018-01-27T20:28:31.376Z,34.40
2018-01-27T20:30:59.820Z,35.43
2018-01-27T20:33:27.446Z,34.40
2018-01-27T20:35:55.105Z,34.33
2018-01-27T20:38:22.705Z,34.30
2018-01-27T20:40:50.341Z,30.80
2018-01-27T20:43:18.861Z,34.00
2018-01-27T20:45:46.479Z,34.03
2018-01-27T20:48:14.086Z,32.53
2018-01-27T20:50:41.747Z,33.50
2018-01-27T20:53:10.723Z,32.17
2018-01-27T20:55:38.744Z,30.60
2018-01-27T20:58:06.388Z,33.07
2018-01-27T21:00:34.754Z,31.27
2018-01-27T21:03:02.372Z,34.17
2018-01-27T21:05:30.745Z,34.57
2018-01-27T21:07:58.486Z,39.03
2018-01-27T21:10:26.086Z,33.63
2018-01-27T21:12:53.720Z,29.90
2018-01-27T21:15:22.020Z,32.83
2018-01-27T21:17:49.669Z,33.80
2018-01-27T21:20:17.284Z,33.53
2018-01-27T21:22:44.906Z,31.87
2018-01-27T21:25:13.290Z,30.07
2018-01-27T21:27:41.692Z,31.17
2018-01-27T21:30:10.099Z,33.73
2018-01-27T21:32:38.536Z,33.40
2018-01-27T21:35:06.142Z,29.93
2018-01-27T21:37:33.783Z,29.13
2018-01-27T21:40:01.392Z,30.43
2018-01-27T21:42:29.073Z,32.13
2018-01-27T21:44:56.685Z,32.27
2018-01-27T21:47:24.308Z,32.07
2018-01-27T21:49:52.722Z,31.40
2018-01-27T21:52:21.111Z,30.73
2018-01-27T21:54:48.734Z,31.70
2018-01-27T21:57:16.337Z,29.87
2018-01-27T21:59:43.962Z,29.47
2018-01-27T22:02:11.566Z,30.13
2018-01-27T22:04:39.952Z,29.83
2018-01-27T22:07:07.551Z,30.70
2018-01-27T22:09:35.945Z,27.50
2018-01-27T22:12:03.561Z,30.83
2018-01-27T22:14:31.185Z,32.10
2018-01-27T22:16:58.815Z,26.17
2018-01-27T22:19:27.206Z,27.20
2018-01-27T22:21:56.495Z,29.10
2018-01-27T22:24:24.129Z,29.30
2018-01-27T22:26:52.559Z,28.03
2018-01-27T22:29:20.174Z,23.50
2018-01-27T22:31:47.798Z,24.33
2018-01-27T22:34:16.156Z,27.10
2018-01-27T22:36:43.792Z,24.43
2018-01-27T22:39:11.437Z,23.83
2018-01-27T22:41:39.081Z,22.23
2018-01-27T22:44:06.671Z,22.57
2018-01-27T22:46:34.303Z,22.93
2018-01-27T22:49:01.966Z,25.10
2018-01-27T22:51:29.565Z,22.07
2018-01-27T22:53:57.175Z,23.37
2018-01-27T22:56:24.882Z,22.60
2018-01-27T22:58:53.248Z,21.40
2018-01-27T23:01:20.864Z,17.67
2018-01-27T23:03:49.254Z,22.17
2018-01-27T23:06:16.894Z,20.57
2018-01-27T23:08:44.484Z,20.27
2018-01-27T23:11:12.121Z,18.83
2018-01-27T23:13:40.540Z,20.07
2018-01-27T23:16:09.358Z,21.50
2018-01-27T23:18:36.966Z,18.80
2018-01-27T23:21:04.561Z,17.30
2018-01-27T23:23:32.206Z,20.13
2018-01-27T23:25:59.819Z,19.53
2018-01-27T23:28:27.486Z,17.87
2018-01-27T23:30:55.084Z,15.33
2018-01-27T23:33:22.715Z,16.90
2018-01-27T23:35:50.320Z,15.97
2018-01-27T23:38:18.713Z,16.83
2018-01-27T23:40:46.315Z,13.83
2018-01-27T23:43:14.697Z,16.67
2018-01-27T23:45:42.325Z,16.27
2018-01-27T23:48:09.963Z,17.63
2018-01-27T23:50:37.565Z,14.17
2018-01-27T23:53:06.007Z,14.70
2018-01-27T23:55:33.598Z,15.10
2018-01-27T23:58:01.216Z,12.50
